createdAt,value
2022-08-11T00:00:21.072Z,101999.78
2022-08-11T00:03:08.882Z,102006.44
2022-08-11T00:05:56.537Z,102004.03
2022-08-11T00:08:42.509Z,102005.81
2022-08-11T00:11:41.545Z,102003.44
2022-08-11T00:14:36.746Z,101991.66
2022-08-11T00:17:28.142Z,101987.66
2022-08-11T00:20:16.941Z,101987.44
2022-08-11T00:23:08.594Z,101979.94
2022-08-11T00:25:54.456Z,101982.13
2022-08-11T00:28:41.542Z,101983.63
2022-08-11T00:31:30.005Z,101985.03
2022-08-11T00:34:18.519Z,101988.19
2022-08-11T00:37:07.687Z,101995.31
2022-08-11T00:39:55.004Z,101977.25
2022-08-11T00:43:03.483Z,101993.13
2022-08-11T00:46:03.824Z,101986.06
2022-08-11T00:48:57.859Z,101986.41
2022-08-11T00:52:07.529Z,101987.72
2022-08-11T00:55:04.533Z,101980.84
2022-08-11T00:58:10.696Z,101992.44
2022-08-11T01:01:09.600Z,101978.56
2022-08-11T01:04:14.604Z,101982.44
2022-08-11T01:08:00.446Z,101974.59
2022-08-11T01:11:16.057Z,101973.50
2022-08-11T01:14:18.764Z,101977.13
2022-08-11T01:17:57.151Z,101975.44
2022-08-11T01:21:03.896Z,101974.00
2022-08-11T01:24:16.342Z,101968.56
2022-08-11T01:27:18.812Z,101960.72
2022-08-11T01:30:30.058Z,101960.00
2022-08-11T01:33:45.522Z,101964.00
2022-08-11T01:36:44.142Z,101958.91
2022-08-11T01:39:51.378Z,101962.66
2022-08-11T01:43:00.972Z,101953.50
2022-08-11T01:45:50.252Z,101950.00
2022-08-11T01:48:49.778Z,101963.88
2022-08-11T01:51:51.940Z,101954.34
2022-08-11T01:54:37.139Z,101941.22
2022-08-11T01:57:38.625Z,101950.00
2022-08-11T02:00:28.929Z,101966.97
2022-08-11T02:03:45.719Z,101953.50
2022-08-11T02:06:56.616Z,101965.53
2022-08-11T02:09:56.513Z,101959.16
2022-08-11T02:12:53.051Z,101954.22
2022-08-11T02:15:56.763Z,101947.00
2022-08-11T02:19:08.782Z,101949.41
2022-08-11T02:22:24.910Z,101949.53
2022-08-11T02:25:22.445Z,101934.38
2022-08-11T02:28:34.666Z,101947.63
2022-08-11T02:32:10.980Z,101948.81
2022-08-11T02:35:13.133Z,101941.47
2022-08-11T02:38:18.581Z,101948.97
2022-08-11T02:41:34.586Z,101945.81
2022-08-11T02:44:49.163Z,101946.53
2022-08-11T02:48:41.082Z,101937.59
2022-08-11T02:51:39.259Z,101936.91
2022-08-11T02:54:35.985Z,101941.22
2022-08-11T02:57:29.453Z,101921.47
2022-08-11T03:00:17.703Z,101937.00
2022-08-11T03:03:18.326Z,101934.72
2022-08-11T03:06:12.510Z,101923.38
2022-08-11T03:09:18.021Z,101925.06
2022-08-11T03:12:53.130Z,101927.41
2022-08-11T03:16:40.207Z,101930.53
2022-08-11T03:19:57.188Z,101913.88
2022-08-11T03:23:20.165Z,101928.59
2022-08-11T03:26:38.538Z,101927.34
2022-08-11T03:29:34.270Z,101920.50
2022-08-11T03:32:29.875Z,101925.88
2022-08-11T03:35:21.545Z,101926.63
2022-08-11T03:38:15.259Z,101908.06
2022-08-11T03:42:01.259Z,101920.81
2022-08-11T03:45:02.196Z,101912.53
2022-08-11T03:47:55.614Z,101920.81
2022-08-11T03:50:55.668Z,101917.47
2022-08-11T03:53:56.138Z,101914.09
2022-08-11T03:56:58.556Z,101898.69
2022-08-11T04:00:20.654Z,101909.53
2022-08-11T04:03:08.538Z,101907.97
2022-08-11T04:06:30.499Z,101913.25
2022-08-11T04:09:46.163Z,101909.75
2022-08-11T04:13:03.899Z,101885.53
2022-08-11T04:16:11.624Z,101900.84
2022-08-11T04:19:39.989Z,101901.28
2022-08-11T04:22:49.541Z,101901.41
2022-08-11T04:26:15.865Z,101914.00
2022-08-11T04:29:36.045Z,101902.84
2022-08-11T04:32:37.197Z,101904.28
2022-08-11T04:35:30.606Z,101908.94
2022-08-11T04:38:34.384Z,101900.38
2022-08-11T04:42:31.024Z,101894.97
2022-08-11T04:45:33.757Z,101898.34
2022-08-11T04:49:27.507Z,101889.50
2022-08-11T04:52:38.462Z,101894.38
2022-08-11T04:55:48.911Z,101897.41
2022-08-11T04:59:37.233Z,101880.81
2022-08-11T05:02:38.026Z,101904.56
2022-08-11T05:06:06.287Z,101899.03
2022-08-11T05:08:54.452Z,101903.13
2022-08-11T05:12:01.980Z,101904.00
2022-08-11T05:15:11.143Z,101910.00
2022-08-11T05:18:36.045Z,101912.78
2022-08-11T05:21:45.298Z,101912.03
2022-08-11T05:25:00.871Z,101919.13
2022-08-11T05:28:29.342Z,101918.06
2022-08-11T05:31:35.196Z,101912.66
2022-08-11T05:34:54.868Z,101920.00
2022-08-11T05:38:03.258Z,101915.00
2022-08-11T05:41:12.486Z,101922.53
2022-08-11T05:44:20.897Z,101926.88
2022-08-11T05:47:26.535Z,101931.59
2022-08-11T05:50:33.101Z,101935.34
2022-08-11T05:53:45.727Z,101935.78
2022-08-11T05:56:34.170Z,101926.50
2022-08-11T05:59:19.746Z,101919.91
2022-08-11T06:02:07.471Z,101926.41
2022-08-11T06:04:58.019Z,101918.22
2022-08-11T06:07:48.564Z,101918.22
2022-08-11T06:10:41.281Z,101923.66
2022-08-11T06:13:27.570Z,101925.56
2022-08-11T06:16:18.033Z,101923.88
2022-08-11T06:19:04.297Z,101925.94
2022-08-11T06:21:51.875Z,101927.16
2022-08-11T06:24:41.601Z,101924.09
2022-08-11T06:27:30.393Z,101925.06
2022-08-11T06:30:15.442Z,101910.97
2022-08-11T06:33:01.727Z,101909.34
2022-08-11T06:36:07.968Z,101924.50
2022-08-11T06:38:59.245Z,101923.34
2022-08-11T06:42:13.829Z,101921.78
2022-08-11T06:45:11.958Z,101917.63
2022-08-11T06:48:00.735Z,101920.63
2022-08-11T06:51:12.545Z,101915.75
2022-08-11T06:54:05.666Z,101921.56
2022-08-11T06:57:29.813Z,101926.59
2022-08-11T07:00:29.361Z,101912.41
2022-08-11T07:03:19.611Z,101920.31
2022-08-11T07:06:34.504Z,101924.88
2022-08-11T07:10:09.699Z,101908.84
2022-08-11T07:13:38.169Z,101924.72
2022-08-11T07:16:28.567Z,101915.50
2022-08-11T07:19:36.098Z,101931.75
2022-08-11T07:22:43.269Z,101918.34
2022-08-11T07:25:50.382Z,101924.50
2022-08-11T07:28:58.244Z,101922.56
2022-08-11T07:31:53.986Z,101928.28
2022-08-11T07:34:45.374Z,101922.28
2022-08-11T07:37:33.845Z,101909.09
2022-08-11T07:40:23.810Z,101922.56
2022-08-11T07:43:09.812Z,101923.78
2022-08-11T07:46:14.625Z,101913.38
2022-08-11T07:49:21.268Z,101921.59
2022-08-11T07:52:26.523Z,101930.63
2022-08-11T07:55:17.208Z,101920.13
2022-08-11T07:58:21.695Z,101923.44
2022-08-11T08:01:30.421Z,101925.47
2022-08-11T08:04:36.730Z,101920.22
2022-08-11T08:07:41.929Z,101922.66
2022-08-11T08:10:46.761Z,101917.88
2022-08-11T08:13:53.082Z,101916.97
2022-08-11T08:16:58.066Z,101922.63
2022-08-11T08:19:47.873Z,101917.72
2022-08-11T08:22:38.752Z,101921.19
2022-08-11T08:25:29.516Z,101906.53
2022-08-11T08:28:20.768Z,101915.00
2022-08-11T08:31:06.390Z,101922.06
2022-08-11T08:33:52.506Z,101903.03
2022-08-11T08:36:39.871Z,101919.22
2022-08-11T08:39:24.914Z,101913.28
2022-08-11T08:42:13.193Z,101910.03
2022-08-11T08:45:15.741Z,101910.66
2022-08-11T08:48:08.601Z,101909.66
2022-08-11T08:51:21.914Z,101906.22
2022-08-11T08:54:11.351Z,101914.94
2022-08-11T08:56:58.855Z,101915.47
2022-08-11T08:59:48.742Z,101913.34
2022-08-11T09:02:35.327Z,101918.72
2022-08-11T09:05:21.351Z,101902.50
2022-08-11T09:08:06.640Z,101898.97
2022-08-11T09:11:14.032Z,101905.69
2022-08-11T09:14:05.059Z,101912.22
2022-08-11T09:16:53.562Z,101902.69
2022-08-11T09:19:38.881Z,101899.66
2022-08-11T09:22:42.927Z,101899.81
2022-08-11T09:25:50.262Z,101886.25
2022-08-11T09:28:37.554Z,101897.25
2022-08-11T09:31:22.906Z,101898.03
2022-08-11T09:34:11.162Z,101892.81
2022-08-11T09:37:28.551Z,101897.66
2022-08-11T09:40:31.055Z,101885.28
2022-08-11T09:43:37.569Z,101885.19
2022-08-11T09:46:29.189Z,101883.13
2022-08-11T09:49:14.254Z,101877.06
2022-08-11T09:52:05.330Z,101874.97
2022-08-11T09:54:51.425Z,101871.88
2022-08-11T09:57:58.349Z,101863.03
2022-08-11T10:00:47.645Z,101862.50
2022-08-11T10:03:40.254Z,101869.78
2022-08-11T10:06:47.452Z,101871.06
2022-08-11T10:09:54.526Z,101855.53
2022-08-11T10:12:46.658Z,101857.97
2022-08-11T10:15:38.134Z,101866.81
2022-08-11T10:18:42.912Z,101857.38
2022-08-11T10:21:36.169Z,101861.06
2022-08-11T10:24:40.446Z,101861.63
2022-08-11T10:28:30.739Z,101849.13
2022-08-11T10:30:51.801Z,101852.56
2022-08-11T10:33:59.482Z,101858.97
2022-08-11T10:36:49.513Z,101853.25
2022-08-11T10:39:35.831Z,101849.47
2022-08-11T10:42:57.455Z,101843.97
2022-08-11T10:46:05.258Z,101846.78
2022-08-11T10:48:50.724Z,101830.53
2022-08-11T10:51:58.581Z,101836.41
2022-08-11T10:55:02.984Z,101840.44
2022-08-11T10:58:07.256Z,101827.09
2022-08-11T11:00:56.859Z,101833.22
2022-08-11T11:03:43.572Z,101825.97
2022-08-11T11:06:56.163Z,101838.03
2022-08-11T11:09:47.229Z,101840.78
2022-08-11T11:13:06.449Z,101835.47
2022-08-11T11:16:30.757Z,101829.06
2022-08-11T11:19:23.916Z,101833.69
2022-08-11T11:22:30.869Z,101826.44
2022-08-11T11:25:24.813Z,101828.53
2022-08-11T11:28:24.320Z,101822.97
2022-08-11T11:31:58.470Z,101831.91
2022-08-11T11:35:04.370Z,101829.00
2022-08-11T11:37:56.101Z,101817.53
2022-08-11T11:41:10.552Z,101828.59
2022-08-11T11:43:57.291Z,101823.56
2022-08-11T11:46:47.337Z,101820.22
2022-08-11T11:49:33.312Z,101816.88
2022-08-11T11:52:21.782Z,101824.28
2022-08-11T11:55:07.775Z,101823.25
2022-08-11T11:58:18.656Z,101821.16
2022-08-11T12:01:16.875Z,101825.91
2022-08-11T12:04:06.080Z,101817.31
2022-08-11T12:07:11.868Z,101814.94
2022-08-11T12:09:58.432Z,101815.72
2022-08-11T12:13:04.083Z,101810.59
2022-08-11T12:16:32.075Z,101806.13
2022-08-11T12:19:00.622Z,101802.69
2022-08-11T12:22:05.273Z,101796.28
2022-08-11T12:25:09.020Z,101807.00
2022-08-11T12:27:55.874Z,101800.91
2022-08-11T12:33:34.132Z,101799.34
2022-08-11T12:36:21.453Z,101789.91
2022-08-11T12:39:23.006Z,101788.06
2022-08-11T12:42:30.210Z,101785.34
2022-08-11T12:45:27.875Z,101786.72
2022-08-11T12:48:59.910Z,101782.47
2022-08-11T12:52:14.580Z,101782.00
2022-08-11T12:55:42.881Z,101781.34
2022-08-11T12:58:49.670Z,101771.41
2022-08-11T13:01:55.919Z,101769.28
2022-08-11T13:05:01.512Z,101760.34
2022-08-11T13:07:50.675Z,101769.34
2022-08-11T13:10:56.300Z,101760.94
2022-08-11T13:13:53.994Z,101771.84
2022-08-11T13:17:01.983Z,101774.47
2022-08-11T13:19:49.790Z,101761.25
2022-08-11T13:22:36.872Z,101757.84
2022-08-11T13:25:25.508Z,101764.81
2022-08-11T13:28:12.603Z,101762.09
2022-08-11T13:31:14.866Z,101768.84
2022-08-11T13:34:01.770Z,101769.56
2022-08-11T13:36:52.993Z,101752.84
2022-08-11T13:39:38.222Z,101761.47
2022-08-11T13:42:23.339Z,101748.66
2022-08-11T13:45:09.743Z,101763.47
2022-08-11T13:48:00.033Z,101750.47
2022-08-11T13:51:04.556Z,101737.25
2022-08-11T13:53:49.897Z,101747.19
2022-08-11T13:56:40.972Z,101748.34
2022-08-11T13:59:29.831Z,101749.44
2022-08-11T14:02:22.096Z,101758.25
2022-08-11T14:05:17.384Z,101747.84
2022-08-11T14:08:07.811Z,101742.91
2022-08-11T14:12:23.159Z,101745.09
2022-08-11T14:14:26.472Z,101744.97
2022-08-11T14:17:13.779Z,101729.03
2022-08-11T14:20:39.737Z,101734.53
2022-08-11T14:23:33.854Z,101742.25
2022-08-11T14:26:24.305Z,101722.28
2022-08-11T14:32:12.061Z,101728.53
2022-08-11T14:34:58.887Z,101719.41
2022-08-11T14:37:44.430Z,101728.53
2022-08-11T14:40:47.993Z,101731.63
2022-08-11T14:44:13.051Z,101733.38
2022-08-11T14:47:23.375Z,101720.59
2022-08-11T14:50:14.561Z,101711.88
2022-08-11T14:53:04.909Z,101725.78
2022-08-11T14:56:10.184Z,101722.22
2022-08-11T14:58:57.758Z,101712.81
2022-08-11T15:02:04.370Z,101709.50
2022-08-11T15:04:51.018Z,101709.66
2022-08-11T15:07:37.599Z,101702.03
2022-08-11T15:10:23.082Z,101697.16
2022-08-11T15:13:08.601Z,101693.72
2022-08-11T15:16:12.176Z,101694.47
2022-08-11T15:18:58.922Z,101673.19
2022-08-11T15:22:02.630Z,101701.25
2022-08-11T15:24:47.937Z,101693.81
2022-08-11T15:27:52.843Z,101683.56
2022-08-11T15:30:57.474Z,101692.66
2022-08-11T15:34:03.761Z,101692.91
2022-08-11T15:37:09.445Z,101689.88
2022-08-11T15:40:31.620Z,101689.47
2022-08-11T15:43:46.149Z,101682.84
2022-08-11T15:46:45.148Z,101689.63
2022-08-11T15:50:11.421Z,101691.00
2022-08-11T15:52:56.091Z,101697.31
2022-08-11T15:55:43.431Z,101684.13
2022-08-11T15:59:10.702Z,101686.22
2022-08-11T16:02:32.697Z,101687.97
2022-08-11T16:05:45.228Z,101678.44
2022-08-11T16:08:32.611Z,101668.28
2022-08-11T16:11:21.383Z,101665.59
2022-08-11T16:14:29.590Z,101668.09
2022-08-11T16:17:18.588Z,101663.34
2022-08-11T16:20:05.574Z,101667.28
2022-08-11T16:23:00.333Z,101658.16
2022-08-11T16:27:06.891Z,101660.66
2022-08-11T16:28:57.798Z,101668.94
2022-08-11T16:32:03.865Z,101661.06
2022-08-11T16:35:18.853Z,101656.94
2022-08-11T16:38:24.600Z,101648.22
2022-08-11T16:41:13.753Z,101645.09
2022-08-11T16:44:17.509Z,101650.69
2022-08-11T16:48:03.553Z,101647.13
2022-08-11T16:50:25.505Z,101648.16
2022-08-11T16:53:10.705Z,101644.84
2022-08-11T16:56:00.029Z,101639.81
2022-08-11T16:59:08.965Z,101643.97
2022-08-11T17:01:58.006Z,101647.28
2022-08-11T17:05:10.122Z,101634.22
2022-08-11T17:08:16.948Z,101636.03
2022-08-11T17:11:21.953Z,101636.19
2022-08-11T17:14:12.945Z,101629.72
2022-08-11T17:17:00.945Z,101635.69
2022-08-11T17:20:40.770Z,101627.97
2022-08-11T17:23:15.011Z,101633.53
2022-08-11T17:26:04.401Z,101618.25
2022-08-11T17:28:56.307Z,101639.31
2022-08-11T17:32:00.275Z,101622.91
2022-08-11T17:35:05.168Z,101632.75
2022-08-11T17:37:52.361Z,101631.03
2022-08-11T17:41:00.420Z,101626.41
2022-08-11T17:44:06.269Z,101626.16
2022-08-11T17:47:10.197Z,101618.88
2022-08-11T17:49:56.274Z,101628.34
2022-08-11T17:53:19.916Z,101618.78
2022-08-11T17:56:24.824Z,101622.84
2022-08-11T17:59:32.246Z,101618.78
2022-08-11T18:02:40.052Z,101623.34
2022-08-11T18:05:29.442Z,101636.38
2022-08-11T18:08:34.095Z,101632.53
2022-08-11T18:12:11.473Z,101621.72
2022-08-11T18:15:06.985Z,101626.63
2022-08-11T18:18:10.909Z,101627.41
2022-08-11T18:21:14.671Z,101617.78
2022-08-11T18:24:23.409Z,101619.38
2022-08-11T18:27:30.147Z,101621.63
2022-08-11T18:30:34.969Z,101618.75
2022-08-11T18:34:05.814Z,101626.56
2022-08-11T18:37:36.722Z,101618.44
2022-08-11T18:40:47.734Z,101641.41
2022-08-11T18:43:55.953Z,101641.97
2022-08-11T18:47:08.073Z,101632.72
2022-08-11T18:50:15.018Z,101637.00
2022-08-11T18:53:32.721Z,101639.59
2022-08-11T18:56:38.530Z,101637.81
2022-08-11T18:59:45.774Z,101652.13
2022-08-11T19:02:51.353Z,101655.78
2022-08-11T19:06:35.982Z,101651.94
2022-08-11T19:09:25.998Z,101644.72
2022-08-11T19:12:31.172Z,101659.16
2022-08-11T19:15:37.225Z,101643.22
2022-08-11T19:18:41.788Z,101646.06
2022-08-11T19:21:48.292Z,101652.31
2022-08-11T19:24:55.619Z,101660.28
2022-08-11T19:28:00.394Z,101636.75
2022-08-11T19:31:05.233Z,101659.03
2022-08-11T19:34:11.000Z,101644.72
2022-08-11T19:37:15.222Z,101661.06
2022-08-11T19:40:28.067Z,101659.75
2022-08-11T19:43:32.214Z,101667.81
2022-08-11T19:46:41.755Z,101674.25
2022-08-11T19:49:45.346Z,101675.97
2022-08-11T19:52:50.470Z,101671.84
2022-08-11T19:55:54.550Z,101688.25
2022-08-11T19:58:58.752Z,101698.16
2022-08-11T20:02:13.307Z,101700.34
2022-08-11T20:05:17.984Z,101703.88
2022-08-11T20:08:23.815Z,101691.31
2022-08-11T20:11:30.777Z,101694.84
2022-08-11T20:14:37.682Z,101687.31
2022-08-11T20:17:45.027Z,101696.84
2022-08-11T20:20:49.690Z,101706.22
2022-08-11T20:23:54.903Z,101701.22
2022-08-11T20:26:58.745Z,101710.22
2022-08-11T20:30:04.045Z,101703.34
2022-08-11T20:33:09.338Z,101705.88
2022-08-11T20:36:13.117Z,101700.88
2022-08-11T20:39:18.609Z,101696.47
2022-08-11T20:42:28.439Z,101698.16
2022-08-11T20:45:35.887Z,101702.84
2022-08-11T20:48:41.535Z,101708.13
2022-08-11T20:51:46.357Z,101693.22
2022-08-11T20:54:52.632Z,101707.75
2022-08-11T20:58:04.039Z,101721.59
2022-08-11T21:01:19.051Z,101723.22
2022-08-11T21:04:28.025Z,101721.34
2022-08-11T21:07:34.836Z,101731.00
2022-08-11T21:10:40.864Z,101715.94
2022-08-11T21:13:53.006Z,101718.56
2022-08-11T21:17:00.328Z,101716.81
2022-08-11T21:20:16.931Z,101718.28
2022-08-11T21:23:28.326Z,101709.88
2022-08-11T21:26:36.251Z,101718.34
2022-08-11T21:29:42.070Z,101720.13
2022-08-11T21:32:47.994Z,101730.94
2022-08-11T21:35:51.833Z,101714.88
2022-08-11T21:38:56.039Z,101721.66
2022-08-11T21:41:59.822Z,101712.91
2022-08-11T21:45:04.044Z,101700.72
2022-08-11T21:48:10.024Z,101713.91
2022-08-11T21:51:13.813Z,101695.16
2022-08-11T21:54:19.029Z,101715.97
2022-08-11T21:57:24.430Z,101695.06
2022-08-11T22:00:28.662Z,101712.41
2022-08-11T22:03:36.519Z,101710.06
2022-08-11T22:06:54.087Z,101705.97
2022-08-11T22:09:57.968Z,101704.81
2022-08-11T22:13:01.992Z,101702.22
2022-08-11T22:16:05.910Z,101710.91
2022-08-11T22:19:10.724Z,101705.50
2022-08-11T22:22:17.409Z,101705.09
2022-08-11T22:25:22.491Z,101708.75
2022-08-11T22:28:27.369Z,101704.63
2022-08-11T22:31:31.746Z,101707.19
2022-08-11T22:34:39.197Z,101718.38
2022-08-11T22:37:58.705Z,101705.56
2022-08-11T22:41:03.081Z,101700.69
2022-08-11T22:44:07.024Z,101709.25
2022-08-11T22:47:13.976Z,101705.78
2022-08-11T22:50:23.555Z,101703.41
2022-08-11T22:53:27.357Z,101706.47
2022-08-11T22:56:52.507Z,101696.38
2022-08-11T22:59:57.782Z,101712.97
2022-08-11T23:03:01.613Z,101711.28
2022-08-11T23:06:05.983Z,101710.00
2022-08-11T23:09:11.367Z,101714.50
2022-08-11T23:12:16.287Z,101704.59
2022-08-11T23:15:19.943Z,101687.84
2022-08-11T23:18:24.891Z,101707.72
2022-08-11T23:21:32.244Z,101713.47
2022-08-11T23:24:36.585Z,101715.34
2022-08-11T23:27:42.317Z,101713.94
2022-08-11T23:30:48.090Z,101703.84
2022-08-11T23:33:55.467Z,101709.88
2022-08-11T23:36:59.413Z,101699.34
2022-08-11T23:40:03.144Z,101694.59
2022-08-11T23:43:06.919Z,101714.44
2022-08-11T23:46:10.702Z,101694.00
2022-08-11T23:49:17.513Z,101703.41
2022-08-11T23:52:22.425Z,101708.56
2022-08-11T23:55:26.669Z,101703.53
2022-08-11T23:58:30.366Z,101698.75
